Terminal Aerodrome Forecast
Issued by NWS

Home | Current Version | Previous Version | Text Only | Print | Product List | Glossary On
Versions: 1 2 3 4 5 6 7 8 9 10 11 12 13 14 15 16
000
FTUS46 KSEW 251700 RRA
TAFHQM
TAF
KHQM 251745Z 2518/2618 08008KT P6SM BKN007
     FM252100 08004KT P6SM SCT150 BKN200
     FM261000 09006KT 4SM BR SCT001
     FM261400 09008KT 3/4SM BR BKN003=

USA.gov is the U.S. government's official web portal to all federal, state and local government web resources and services.